createdAt,value
2018-03-22T00:01:13.747Z,62.90
2018-03-22T00:03:39.929Z,62.90
2018-03-22T00:06:06.155Z,63.10
2018-03-22T00:08:32.443Z,63.20
2018-03-22T00:10:58.728Z,63.10
2018-03-22T00:13:25.451Z,62.90
2018-03-22T00:15:52.455Z,62.80
2018-03-22T00:18:19.435Z,62.80
2018-03-22T00:20:45.728Z,62.80
2018-03-22T00:23:12.658Z,63.20
2018-03-22T00:25:38.895Z,63.10
2018-03-22T00:28:05.970Z,63.10
2018-03-22T00:30:32.290Z,63.10
2018-03-22T00:33:00.293Z,63.10
2018-03-22T00:35:26.504Z,63.10
2018-03-22T00:37:52.839Z,63.10
2018-03-22T00:40:19.030Z,63.20
2018-03-22T00:42:45.217Z,63.20
2018-03-22T00:45:11.495Z,63.80
2018-03-22T00:47:38.435Z,63.20
2018-03-22T00:50:04.744Z,63.20
2018-03-22T00:52:30.979Z,63.20
2018-03-22T00:54:57.195Z,63.30
2018-03-22T00:57:23.422Z,63.20
2018-03-22T00:59:49.650Z,63.30
2018-03-22T01:02:16.594Z,63.30
2018-03-22T01:04:42.820Z,63.20
2018-03-22T01:07:09.789Z,63.10
2018-03-22T01:09:36.265Z,63.10
2018-03-22T01:12:02.689Z,63.10
2018-03-22T01:14:28.883Z,62.90
2018-03-22T01:16:55.878Z,62.90
2018-03-22T01:19:22.133Z,62.80
2018-03-22T01:21:48.328Z,62.80
2018-03-22T01:24:14.530Z,62.60
2018-03-22T01:26:40.770Z,62.60
2018-03-22T01:29:07.940Z,62.40
2018-03-22T01:31:34.169Z,62.30
2018-03-22T01:34:00.393Z,62.30
2018-03-22T01:36:26.594Z,62.30
2018-03-22T01:38:52.794Z,62.10
2018-03-22T01:41:19.771Z,61.90
2018-03-22T01:43:46.071Z,61.90
2018-03-22T01:46:12.395Z,61.70
2018-03-22T01:48:38.666Z,61.60
2018-03-22T01:51:04.866Z,61.40
2018-03-22T01:53:31.114Z,61.40
2018-03-22T01:55:57.303Z,61.30
2018-03-22T01:58:23.546Z,61.30
2018-03-22T02:00:50.507Z,61.30
2018-03-22T02:03:16.754Z,61.20
2018-03-22T02:05:43.179Z,61.10
2018-03-22T02:08:09.415Z,60.90
2018-03-22T02:10:35.626Z,60.90
2018-03-22T02:13:01.834Z,60.90
2018-03-22T02:15:28.754Z,60.80
2018-03-22T02:17:54.967Z,60.70
2018-03-22T02:20:21.249Z,60.80
2018-03-22T02:22:47.947Z,60.90
2018-03-22T02:25:21.542Z,60.90
2018-03-22T02:27:48.760Z,61.30
2018-03-22T02:30:16.122Z,61.40
2018-03-22T02:32:42.373Z,61.30
2018-03-22T02:35:08.618Z,61.50
2018-03-22T02:37:34.851Z,61.70
2018-03-22T02:40:01.094Z,61.90
2018-03-22T02:42:27.367Z,62.10
2018-03-22T02:44:53.642Z,62.20
2018-03-22T02:47:19.881Z,62.50
2018-03-22T02:49:46.139Z,62.60
2018-03-22T02:52:12.378Z,62.80
2018-03-22T02:54:38.623Z,62.90
2018-03-22T02:57:04.839Z,63.00
2018-03-22T02:59:31.848Z,63.20
2018-03-22T03:01:58.175Z,63.20
2018-03-22T03:04:25.482Z,63.30
2018-03-22T03:06:52.712Z,63.30
2018-03-22T03:09:19.263Z,63.40
2018-03-22T03:11:45.532Z,63.50
2018-03-22T03:14:11.739Z,63.80
2018-03-22T03:16:37.933Z,64.00
2018-03-22T03:19:05.001Z,64.00
2018-03-22T03:21:31.241Z,64.10
2018-03-22T03:23:57.494Z,64.20
2018-03-22T03:26:23.921Z,64.30
2018-03-22T03:28:50.838Z,64.40
2018-03-22T03:31:17.133Z,64.40
2018-03-22T03:33:43.497Z,65.20
2018-03-22T03:36:10.563Z,64.80
2018-03-22T03:38:36.806Z,64.80
2018-03-22T03:41:03.058Z,65.00
2018-03-22T03:43:29.328Z,65.10
2018-03-22T03:45:55.550Z,65.50
2018-03-22T03:48:21.794Z,66.00
2018-03-22T03:50:49.243Z,66.30
2018-03-22T03:53:15.541Z,66.60
2018-03-22T03:55:41.745Z,66.30
2018-03-22T03:58:09.151Z,66.60
2018-03-22T04:00:35.620Z,66.60
2018-03-22T04:03:02.135Z,66.70
2018-03-22T04:05:28.348Z,66.60
2018-03-22T04:07:55.060Z,67.20
2018-03-22T04:10:21.337Z,67.60
2018-03-22T04:12:47.535Z,67.70
2018-03-22T04:15:20.225Z,67.90
2018-03-22T04:17:52.733Z,68.30
2018-03-22T04:20:25.077Z,68.40
2018-03-22T04:22:57.373Z,68.50
2018-03-22T04:25:30.168Z,68.60
2018-03-22T04:28:03.729Z,68.90
2018-03-22T04:30:35.991Z,68.90
2018-03-22T04:33:08.310Z,69.00
2018-03-22T04:35:40.734Z,69.10
2018-03-22T04:38:07.165Z,69.50
2018-03-22T04:40:33.735Z,69.00
2018-03-22T04:43:00.710Z,69.00
2018-03-22T04:45:26.941Z,69.00
2018-03-22T04:47:53.359Z,69.00
2018-03-22T04:50:19.600Z,69.20
2018-03-22T04:52:45.826Z,69.40
2018-03-22T04:55:12.112Z,69.60
2018-03-22T04:57:38.290Z,69.60
2018-03-22T05:00:04.608Z,69.70
2018-03-22T05:02:30.786Z,69.60
2018-03-22T05:04:57.023Z,69.70
2018-03-22T05:07:23.435Z,69.80
2018-03-22T05:09:49.711Z,70.00
2018-03-22T05:12:15.943Z,70.20
2018-03-22T05:14:42.171Z,70.20
2018-03-22T05:17:08.378Z,70.50
2018-03-22T05:19:34.574Z,70.60
2018-03-22T05:22:00.799Z,70.50
2018-03-22T05:24:27.003Z,70.60
2018-03-22T05:26:53.204Z,70.60
2018-03-22T05:29:20.370Z,70.90
2018-03-22T05:31:46.580Z,70.90
2018-03-22T05:34:13.271Z,71.10
2018-03-22T05:36:39.477Z,71.30
2018-03-22T05:39:06.454Z,71.90
2018-03-22T05:41:34.169Z,72.30
2018-03-22T05:44:00.386Z,72.20
2018-03-22T05:46:27.418Z,72.40
2018-03-22T05:48:54.304Z,72.60
2018-03-22T05:51:21.321Z,73.20
2018-03-22T05:53:47.576Z,73.20
2018-03-22T05:56:13.832Z,73.40
2018-03-22T05:58:40.779Z,74.10
2018-03-22T06:01:06.993Z,74.10
2018-03-22T06:03:33.410Z,74.50
2018-03-22T06:05:59.810Z,74.60
2018-03-22T06:08:26.973Z,75.10
2018-03-22T06:10:53.239Z,75.10
2018-03-22T06:13:20.198Z,75.70
2018-03-22T06:15:52.433Z,75.20
2018-03-22T06:18:20.053Z,76.20
2018-03-22T06:20:46.280Z,76.10
2018-03-22T06:23:13.946Z,76.70
2018-03-22T06:25:40.283Z,77.20
2018-03-22T06:28:06.458Z,77.60
2018-03-22T06:30:33.896Z,77.90
2018-03-22T06:33:01.033Z,78.00
2018-03-22T06:35:27.286Z,77.90
2018-03-22T06:37:53.664Z,78.00
2018-03-22T06:40:19.957Z,78.00
2018-03-22T06:42:46.953Z,78.00
2018-03-22T06:45:14.678Z,78.40
2018-03-22T06:47:42.053Z,78.80
2018-03-22T06:50:09.404Z,79.10
2018-03-22T06:52:36.210Z,79.10
2018-03-22T06:55:04.517Z,79.60
2018-03-22T06:57:31.767Z,79.60
2018-03-22T06:59:58.916Z,79.70
2018-03-22T07:02:26.463Z,79.80
2018-03-22T07:04:53.422Z,79.90
2018-03-22T07:07:20.349Z,80.00
2018-03-22T07:09:47.466Z,80.50
2018-03-22T07:12:13.778Z,80.50
2018-03-22T07:14:40.201Z,80.60
2018-03-22T07:17:06.471Z,80.90
2018-03-22T07:19:33.428Z,81.80
2018-03-22T07:21:59.757Z,81.40
2018-03-22T07:24:26.034Z,81.90
2018-03-22T07:26:52.389Z,82.10
2018-03-22T07:29:18.814Z,82.20
2018-03-22T07:31:45.803Z,82.60
2018-03-22T07:34:12.313Z,83.20
2018-03-22T07:36:38.675Z,82.70
2018-03-22T07:39:05.559Z,82.80
2018-03-22T07:41:31.794Z,83.10
2018-03-22T07:44:04.212Z,83.50
2018-03-22T07:46:30.481Z,83.70
2018-03-22T07:48:56.668Z,83.70
2018-03-22T07:51:23.007Z,83.80
2018-03-22T07:53:49.943Z,83.80
2018-03-22T07:56:16.919Z,83.80
2018-03-22T07:58:44.398Z,83.80
2018-03-22T08:01:11.560Z,83.70
2018-03-22T08:03:38.734Z,83.40
2018-03-22T08:06:05.170Z,83.40
2018-03-22T08:08:31.418Z,83.30
2018-03-22T08:10:57.649Z,83.20
2018-03-22T08:13:24.696Z,82.80
2018-03-22T08:15:51.072Z,82.80
2018-03-22T08:18:17.400Z,82.90
2018-03-22T08:20:44.339Z,83.00
2018-03-22T08:23:11.617Z,83.00
2018-03-22T08:25:38.596Z,83.00
2018-03-22T08:28:06.196Z,83.10
2018-03-22T08:30:33.251Z,83.20
2018-03-22T08:33:00.259Z,83.10
2018-03-22T08:35:26.520Z,83.10
2018-03-22T08:37:53.573Z,83.40
2018-03-22T08:40:19.913Z,83.00
2018-03-22T08:42:46.267Z,83.10
2018-03-22T08:45:12.798Z,82.90
2018-03-22T08:47:39.779Z,83.00
2018-03-22T08:50:05.979Z,83.00
2018-03-22T08:52:32.211Z,83.00
2018-03-22T08:54:58.494Z,83.00
2018-03-22T08:57:24.737Z,83.00
2018-03-22T08:59:51.895Z,83.90
2018-03-22T09:02:18.113Z,83.10
2018-03-22T09:04:45.185Z,83.20
2018-03-22T09:07:11.462Z,83.10
2018-03-22T09:09:37.754Z,83.10
2018-03-22T09:12:04.735Z,83.20
2018-03-22T09:14:30.942Z,83.10
2018-03-22T09:16:57.318Z,83.30
2018-03-22T09:19:23.844Z,83.40
2018-03-22T09:21:50.073Z,83.50
2018-03-22T09:24:16.498Z,83.60
2018-03-22T09:26:48.989Z,83.80
2018-03-22T09:29:15.198Z,84.00
2018-03-22T09:31:41.393Z,84.00
2018-03-22T09:34:08.154Z,83.90
2018-03-22T09:36:35.996Z,83.90
2018-03-22T09:39:02.681Z,83.90
2018-03-22T09:41:29.034Z,84.00
2018-03-22T09:43:56.427Z,84.30
2018-03-22T09:46:22.790Z,84.30
2018-03-22T09:48:49.100Z,84.30
2018-03-22T09:51:16.229Z,84.10
2018-03-22T09:53:42.461Z,84.10
2018-03-22T09:56:09.935Z,84.20
2018-03-22T09:58:37.939Z,84.20
2018-03-22T10:01:04.222Z,84.10
2018-03-22T10:03:30.467Z,84.20
2018-03-22T10:05:56.874Z,84.20
2018-03-22T10:08:23.089Z,84.40
2018-03-22T10:10:50.252Z,84.40
2018-03-22T10:13:16.482Z,84.30
2018-03-22T10:15:42.866Z,84.40
2018-03-22T10:18:09.216Z,84.30
2018-03-22T10:20:35.483Z,84.30
2018-03-22T10:23:01.932Z,84.30
2018-03-22T10:25:28.314Z,84.10
2018-03-22T10:27:55.337Z,84.20
2018-03-22T10:30:22.587Z,84.20
2018-03-22T10:32:49.511Z,84.20
2018-03-22T10:35:15.710Z,84.30
2018-03-22T10:37:42.991Z,84.20
2018-03-22T10:40:09.234Z,84.10
2018-03-22T10:42:35.481Z,84.10
2018-03-22T10:45:02.907Z,84.50
2018-03-22T10:47:30.184Z,84.40
2018-03-22T10:49:56.452Z,84.40
2018-03-22T10:52:22.666Z,84.30
2018-03-22T10:54:49.661Z,84.50
2018-03-22T10:57:15.876Z,84.50
2018-03-22T10:59:42.397Z,84.50
2018-03-22T11:02:14.899Z,84.60
2018-03-22T11:04:48.954Z,84.50
2018-03-22T11:07:15.938Z,84.50
2018-03-22T11:09:42.234Z,84.40
2018-03-22T11:12:08.721Z,84.30
2018-03-22T11:14:34.942Z,83.80
2018-03-22T11:17:01.143Z,83.60
2018-03-22T11:19:27.381Z,83.20
2018-03-22T11:21:53.608Z,82.90
2018-03-22T11:24:20.065Z,83.00
2018-03-22T11:26:46.551Z,83.00
2018-03-22T11:29:12.966Z,83.10
2018-03-22T11:31:39.562Z,83.10
2018-03-22T11:34:10.043Z,83.10
2018-03-22T11:36:37.131Z,82.80
2018-03-22T11:39:03.440Z,82.70
2018-03-22T11:41:29.673Z,82.50
2018-03-22T11:43:56.012Z,82.20
2018-03-22T11:46:22.333Z,82.20
2018-03-22T11:48:48.766Z,82.30
2018-03-22T11:51:14.997Z,82.20
2018-03-22T11:53:41.204Z,83.20
2018-03-22T11:56:07.696Z,82.60
2018-03-22T11:58:33.995Z,82.60
2018-03-22T12:01:00.310Z,82.30
2018-03-22T12:03:26.956Z,82.70
2018-03-22T12:05:53.243Z,82.70
2018-03-22T12:08:19.465Z,82.40
2018-03-22T12:10:45.698Z,82.10
2018-03-22T12:13:12.632Z,82.30
2018-03-22T12:15:39.570Z,82.50
2018-03-22T12:18:06.577Z,82.40
2018-03-22T12:20:32.866Z,82.40
2018-03-22T12:22:59.237Z,82.50
2018-03-22T12:25:25.591Z,82.80
2018-03-22T12:27:51.799Z,82.60
2018-03-22T12:30:18.007Z,82.60
2018-03-22T12:32:44.242Z,82.50
2018-03-22T12:35:11.354Z,82.20
2018-03-22T12:37:38.349Z,82.20
2018-03-22T12:40:04.592Z,82.20
2018-03-22T12:42:30.942Z,82.40
2018-03-22T12:44:57.330Z,82.50
2018-03-22T12:47:23.529Z,82.70
2018-03-22T12:49:50.014Z,82.30
2018-03-22T12:52:16.216Z,82.30
2018-03-22T12:54:42.396Z,82.00
2018-03-22T12:57:09.516Z,82.00
2018-03-22T12:59:35.846Z,82.00
2018-03-22T13:02:02.163Z,82.10
2018-03-22T13:04:28.297Z,81.70
2018-03-22T13:06:54.544Z,81.50
2018-03-22T13:09:20.762Z,81.30
2018-03-22T13:11:46.986Z,80.80
2018-03-22T13:14:13.630Z,80.20
2018-03-22T13:16:39.809Z,79.80
2018-03-22T13:19:06.256Z,79.50
2018-03-22T13:21:32.616Z,79.10
2018-03-22T13:23:59.836Z,77.30
2018-03-22T13:26:26.019Z,77.30
2018-03-22T13:28:52.953Z,75.80
2018-03-22T13:31:19.889Z,75.70
2018-03-22T13:33:46.115Z,75.70
2018-03-22T13:36:15.699Z,77.60
2018-03-22T13:38:41.908Z,77.60
2018-03-22T13:41:09.523Z,78.90
2018-03-22T13:43:35.931Z,78.90
2018-03-22T13:46:04.216Z,79.20
2018-03-22T13:48:30.442Z,79.30
2018-03-22T13:50:56.657Z,79.40
2018-03-22T13:53:22.922Z,79.70
2018-03-22T13:55:49.135Z,79.70
2018-03-22T13:58:15.398Z,79.80
2018-03-22T14:00:41.874Z,79.60
2018-03-22T14:03:08.806Z,79.60
2018-03-22T14:05:35.800Z,80.00
2018-03-22T14:08:02.038Z,79.90
2018-03-22T14:10:29.192Z,80.20
2018-03-22T14:12:55.435Z,80.10
2018-03-22T14:15:21.841Z,80.40
2018-03-22T14:17:48.109Z,80.50
2018-03-22T14:20:14.374Z,80.70
2018-03-22T14:22:41.826Z,80.80
2018-03-22T14:25:08.304Z,80.80
2018-03-22T14:27:34.506Z,81.00
2018-03-22T14:30:01.484Z,81.20
2018-03-22T14:32:27.793Z,81.20
2018-03-22T14:34:54.727Z,81.40
2018-03-22T14:37:21.735Z,81.60
2018-03-22T14:39:48.610Z,81.50
2018-03-22T14:42:15.021Z,81.80
2018-03-22T14:44:41.987Z,82.10
2018-03-22T14:47:09.169Z,82.50
2018-03-22T14:49:35.371Z,82.50
2018-03-22T14:52:01.577Z,82.50
2018-03-22T14:54:27.952Z,82.30
2018-03-22T14:56:54.386Z,81.90
2018-03-22T14:59:20.766Z,81.70
2018-03-22T15:01:48.549Z,80.90
2018-03-22T15:04:14.807Z,80.90
2018-03-22T15:06:41.073Z,80.80
2018-03-22T15:09:07.754Z,80.70
2018-03-22T15:11:34.690Z,80.50
2018-03-22T15:14:01.873Z,80.10
2018-03-22T15:16:28.102Z,80.10
2018-03-22T15:18:54.337Z,80.10
2018-03-22T15:21:20.543Z,80.00
2018-03-22T15:23:46.822Z,80.30
2018-03-22T15:26:13.253Z,80.30
2018-03-22T15:28:40.262Z,80.40
2018-03-22T15:31:06.461Z,80.30
2018-03-22T15:33:33.510Z,80.40
2018-03-22T15:36:00.674Z,80.40
2018-03-22T15:38:28.064Z,80.40
2018-03-22T15:40:55.159Z,80.30
2018-03-22T15:43:22.383Z,80.40
2018-03-22T15:45:48.597Z,80.30
2018-03-22T15:48:14.843Z,80.40
2018-03-22T15:50:41.155Z,80.40
2018-03-22T15:53:07.474Z,80.00
2018-03-22T15:55:33.682Z,79.80
2018-03-22T15:57:59.943Z,79.60
2018-03-22T16:00:26.170Z,79.40
2018-03-22T16:02:52.443Z,79.20
2018-03-22T16:05:19.470Z,79.00
2018-03-22T16:07:45.685Z,78.90
2018-03-22T16:10:11.934Z,78.90
2018-03-22T16:12:38.966Z,79.10
2018-03-22T16:15:05.257Z,79.00
2018-03-22T16:17:31.538Z,79.00
2018-03-22T16:19:57.850Z,79.00
2018-03-22T16:22:24.817Z,79.20
2018-03-22T16:24:51.778Z,79.30
2018-03-22T16:27:18.033Z,79.30
2018-03-22T16:29:44.305Z,79.60
2018-03-22T16:32:11.301Z,80.10
2018-03-22T16:34:37.492Z,80.10
2018-03-22T16:37:04.486Z,80.40
2018-03-22T16:39:30.772Z,80.30
2018-03-22T16:41:57.142Z,81.00
2018-03-22T16:44:23.398Z,80.20
2018-03-22T16:46:49.603Z,80.20
2018-03-22T16:49:15.826Z,80.20
2018-03-22T16:51:42.049Z,80.10
2018-03-22T16:54:08.368Z,80.20
2018-03-22T16:56:34.568Z,80.10
2018-03-22T16:59:00.828Z,80.10
2018-03-22T17:01:27.042Z,80.20
2018-03-22T17:03:53.302Z,80.00
2018-03-22T17:06:19.514Z,80.00
2018-03-22T17:08:45.904Z,80.00
2018-03-22T17:11:12.220Z,79.80
2018-03-22T17:13:38.515Z,79.40
2018-03-22T17:16:04.719Z,79.20
2018-03-22T17:18:30.916Z,79.00
2018-03-22T17:20:57.186Z,79.00
2018-03-22T17:23:23.421Z,78.70
2018-03-22T17:25:50.493Z,78.50
2018-03-22T17:28:16.736Z,78.40
2018-03-22T17:30:43.132Z,78.30
2018-03-22T17:33:09.365Z,78.10
2018-03-22T17:35:35.581Z,78.10
2018-03-22T17:38:01.843Z,78.10
2018-03-22T17:40:28.034Z,77.90
2018-03-22T17:42:54.933Z,77.80
2018-03-22T17:45:21.252Z,77.90
2018-03-22T17:47:47.673Z,77.90
2018-03-22T17:50:13.868Z,77.90
2018-03-22T17:52:40.109Z,77.90
2018-03-22T17:55:06.330Z,78.00
2018-03-22T17:57:33.299Z,78.00
2018-03-22T18:00:00.817Z,78.20
2018-03-22T18:02:27.030Z,78.20
2018-03-22T18:04:53.334Z,78.40
2018-03-22T18:07:19.847Z,78.50
2018-03-22T18:09:46.061Z,78.60
2018-03-22T18:12:12.479Z,78.60
2018-03-22T18:14:38.718Z,78.80
2018-03-22T18:17:04.927Z,78.90
2018-03-22T18:19:31.172Z,79.10
2018-03-22T18:21:57.503Z,79.20
2018-03-22T18:24:23.861Z,79.30
2018-03-22T18:26:50.367Z,79.20
2018-03-22T18:29:16.591Z,79.20
2018-03-22T18:31:42.808Z,79.20
2018-03-22T18:34:09.035Z,79.30
2018-03-22T18:36:35.235Z,79.30
2018-03-22T18:39:02.342Z,79.50
2018-03-22T18:41:28.600Z,79.50
2018-03-22T18:43:54.926Z,79.50
2018-03-22T18:46:21.246Z,79.50
2018-03-22T18:48:47.603Z,79.60
2018-03-22T18:51:13.892Z,80.00
2018-03-22T18:53:40.182Z,80.20
2018-03-22T18:56:06.422Z,80.50
2018-03-22T18:58:32.655Z,80.90
2018-03-22T19:00:58.941Z,81.20
2018-03-22T19:03:25.214Z,81.30
2018-03-22T19:05:51.465Z,81.60
2018-03-22T19:08:17.674Z,81.70
2018-03-22T19:10:45.509Z,82.30
2018-03-22T19:13:11.731Z,82.30
2018-03-22T19:15:38.109Z,83.10
2018-03-22T19:18:04.447Z,82.60
2018-03-22T19:20:31.506Z,82.80
2018-03-22T19:22:58.030Z,83.10
2018-03-22T19:25:24.993Z,83.60
2018-03-22T19:27:51.337Z,83.60
2018-03-22T19:30:17.718Z,84.30
2018-03-22T19:32:44.090Z,83.60
2018-03-22T19:35:10.718Z,83.60
2018-03-22T19:37:36.984Z,83.80
2018-03-22T19:40:03.337Z,83.80
2018-03-22T19:42:29.676Z,83.60
2018-03-22T19:44:56.147Z,83.70
2018-03-22T19:47:22.411Z,83.70
2018-03-22T19:49:49.046Z,83.80
2018-03-22T19:52:15.306Z,83.90
2018-03-22T19:54:42.264Z,83.90
2018-03-22T19:57:09.430Z,83.80
2018-03-22T19:59:36.487Z,84.00
2018-03-22T20:02:02.798Z,83.90
2018-03-22T20:04:29.393Z,84.10
2018-03-22T20:06:55.649Z,84.10
2018-03-22T20:09:21.888Z,84.10
2018-03-22T20:11:48.176Z,84.30
2018-03-22T20:14:14.678Z,84.30
2018-03-22T20:16:41.616Z,84.20
2018-03-22T20:19:09.189Z,84.20
2018-03-22T20:21:35.883Z,84.10
2018-03-22T20:24:02.223Z,84.00
2018-03-22T20:26:29.205Z,83.90
2018-03-22T20:28:55.574Z,83.90
2018-03-22T20:31:21.786Z,83.80
2018-03-22T20:33:48.426Z,83.60
2018-03-22T20:36:16.742Z,83.00
2018-03-22T20:38:43.084Z,82.90
2018-03-22T20:41:09.502Z,82.60
2018-03-22T20:43:36.202Z,82.00
2018-03-22T20:46:02.622Z,82.10
2018-03-22T20:48:28.959Z,82.00
2018-03-22T20:50:55.845Z,81.60
2018-03-22T20:53:22.944Z,81.30
2018-03-22T20:55:49.519Z,81.20
2018-03-22T20:58:16.654Z,80.90
2018-03-22T21:00:42.894Z,80.90
2018-03-22T21:03:09.540Z,80.70
2018-03-22T21:05:35.836Z,80.50
2018-03-22T21:08:02.286Z,80.30
2018-03-22T21:10:28.894Z,80.20
2018-03-22T21:12:55.371Z,80.00
2018-03-22T21:15:22.526Z,79.70
2018-03-22T21:17:50.968Z,79.60
2018-03-22T21:20:17.246Z,79.60
2018-03-22T21:22:44.319Z,79.30
2018-03-22T21:25:10.533Z,79.30
2018-03-22T21:27:37.565Z,79.20
2018-03-22T21:30:04.486Z,79.20
2018-03-22T21:32:32.753Z,79.00
2018-03-22T21:35:00.250Z,79.00
2018-03-22T21:37:27.371Z,79.00
2018-03-22T21:39:53.851Z,78.90
2018-03-22T21:42:20.115Z,78.80
2018-03-22T21:44:46.332Z,78.80
2018-03-22T21:47:24.962Z,78.80
2018-03-22T21:49:51.445Z,78.80
2018-03-22T21:52:30.205Z,78.80
2018-03-22T21:54:56.495Z,78.80
2018-03-22T21:57:22.904Z,78.70
2018-03-22T21:59:49.313Z,78.70
2018-03-22T22:02:15.561Z,78.80
2018-03-22T22:04:42.582Z,78.70
2018-03-22T22:07:09.153Z,78.70
2018-03-22T22:09:37.238Z,78.80
2018-03-22T22:12:04.560Z,78.80
2018-03-22T22:14:31.067Z,78.70
2018-03-22T22:16:58.533Z,78.70
2018-03-22T22:19:25.005Z,78.50
2018-03-22T22:21:51.314Z,78.40
2018-03-22T22:24:18.175Z,78.50
2018-03-22T22:26:45.141Z,78.40
2018-03-22T22:29:12.102Z,78.40
2018-03-22T22:31:38.549Z,78.40
2018-03-22T22:34:06.336Z,78.40
2018-03-22T22:36:32.729Z,78.40
2018-03-22T22:38:58.986Z,78.30
2018-03-22T22:41:25.645Z,78.50
2018-03-22T22:43:52.982Z,78.70
2018-03-22T22:46:19.211Z,78.80
2018-03-22T22:48:46.257Z,78.80
2018-03-22T22:51:12.526Z,78.80
2018-03-22T22:53:39.689Z,78.90
2018-03-22T22:56:06.167Z,78.90
2018-03-22T22:58:32.461Z,79.00
2018-03-22T23:00:58.896Z,79.00
2018-03-22T23:03:25.152Z,79.10
2018-03-22T23:05:51.387Z,79.10
2018-03-22T23:08:17.686Z,79.20
2018-03-22T23:10:43.957Z,79.30
2018-03-22T23:13:10.242Z,79.40
2018-03-22T23:15:36.512Z,79.40
2018-03-22T23:18:02.837Z,79.60
2018-03-22T23:20:29.088Z,79.60
2018-03-22T23:22:56.135Z,79.80
2018-03-22T23:25:23.179Z,79.80
2018-03-22T23:27:49.499Z,79.80
2018-03-22T23:30:15.953Z,80.00
2018-03-22T23:32:42.574Z,80.20
2018-03-22T23:35:09.939Z,80.40
2018-03-22T23:37:36.250Z,80.40
2018-03-22T23:40:03.276Z,80.40
2018-03-22T23:42:29.542Z,80.30
2018-03-22T23:44:55.770Z,80.30
2018-03-22T23:47:22.018Z,80.80
2018-03-22T23:49:48.324Z,80.40
2018-03-22T23:52:14.840Z,80.40
2018-03-22T23:54:41.866Z,80.60
2018-03-22T23:57:08.111Z,81.30
2018-03-22T23:59:34.345Z,80.60
